logo
Rechercher aéroport 
image banner adimage banner adimage banner ad
image banner ad

VT30 - Ketcham Lndg Area

Situé à Waitsfield, United States

ICAO - VT30, IATA -

Données fournies par Airmate  

Information générale

Coordonnées: N44°9'45" W72°50'2"
Élévation : 780 feet MSL.
Variation magnétique : -16° East
Voir autres Aéroports à Vermont

Données opérationnelles

Special qualification required
Heure actuelle UTC:
Heure actuelle locale:
Météo à : KMPV - Edward F Knapp State ( 22 km )
METAR: KMPV 281951Z AUTO 26005KT 10SM FEW044 FEW050 OVC080 21/12 A2968 RMK AO2 SLP046 T02060117
TAF: KMPV 281732Z 2818/2918 25010G16KT P6SM VCSH BKN060 TEMPO 2820/2824 5SM -SHRA FM290100 29005KT P6SM BKN023 FM290700 VRB04KT P6SM BKN016 FM291100 33005KT P6SM BKN025
Voir NOTAMs / SUP AIP / TFR affectant cet aéroport [VIEW]
Fréquences de communication: [VIEW]

Pistes:

Identifiant RWYQFULongueur (ft)Largeur (ft)SurfaceLDA (ft)
N1050150GRASS
S1050150GRASS

Coordonnées de l'aéroport

Adresse: Waitsfield United States

Vue satellite de VT30